sensor_id;sensor_type;location;lat;lon;timestamp;P1;durP1;ratioP1;P2;durP2;ratioP2
44536;SDS011;30245;51.966;6.292;2024-02-21T00:00:45;17.27;;;8.93;;
44536;SDS011;30245;51.966;6.292;2024-02-21T00:03:11;15.90;;;9.57;;
44536;SDS011;30245;51.966;6.292;2024-02-21T00:05:37;15.20;;;8.23;;
44536;SDS011;30245;51.966;6.292;2024-02-21T00:08:02;16.30;;;9.43;;
44536;SDS011;30245;51.966;6.292;2024-02-21T00:10:28;16.47;;;7.80;;
44536;SDS011;30245;51.966;6.292;2024-02-21T00:12:54;19.83;;;9.80;;
44536;SDS011;30245;51.966;6.292;2024-02-21T00:15:19;16.00;;;8.87;;
44536;SDS011;30245;51.966;6.292;2024-02-21T00:17:46;23.23;;;9.90;;
44536;SDS011;30245;51.966;6.292;2024-02-21T00:20:12;15.87;;;8.30;;
44536;SDS011;30245;51.966;6.292;2024-02-21T00:22:38;16.90;;;7.63;;
44536;SDS011;30245;51.966;6.292;2024-02-21T00:25:03;18.93;;;8.80;;
44536;SDS011;30245;51.966;6.292;2024-02-21T00:27:29;17.97;;;8.10;;
44536;SDS011;30245;51.966;6.292;2024-02-21T00:29:56;15.93;;;7.73;;
44536;SDS011;30245;51.966;6.292;2024-02-21T00:32:21;21.07;;;9.77;;
44536;SDS011;30245;51.966;6.292;2024-02-21T00:34:47;24.83;;;9.10;;
44536;SDS011;30245;51.966;6.292;2024-02-21T00:37:12;24.53;;;8.27;;
44536;SDS011;30245;51.966;6.292;2024-02-21T00:39:38;20.20;;;8.93;;
44536;SDS011;30245;51.966;6.292;2024-02-21T00:42:03;21.27;;;9.00;;
44536;SDS011;30245;51.966;6.292;2024-02-21T00:44:29;18.50;;;7.73;;
44536;SDS011;30245;51.966;6.292;2024-02-21T00:46:55;15.10;;;8.47;;
44536;SDS011;30245;51.966;6.292;2024-02-21T00:49:21;16.37;;;8.00;;
44536;SDS011;30245;51.966;6.292;2024-02-21T00:51:46;19.37;;;7.80;;
44536;SDS011;30245;51.966;6.292;2024-02-21T00:54:12;19.43;;;9.23;;
44536;SDS011;30245;51.966;6.292;2024-02-21T00:56:38;21.77;;;9.07;;
44536;SDS011;30245;51.966;6.292;2024-02-21T00:59:03;23.30;;;8.10;;
44536;SDS011;30245;51.966;6.292;2024-02-21T01:01:29;19.57;;;8.60;;
44536;SDS011;30245;51.966;6.292;2024-02-21T01:03:54;25.87;;;8.43;;
44536;SDS011;30245;51.966;6.292;2024-02-21T01:06:20;14.70;;;8.47;;
44536;SDS011;30245;51.966;6.292;2024-02-21T01:08:48;14.87;;;6.37;;
44536;SDS011;30245;51.966;6.292;2024-02-21T01:11:14;13.55;;;8.23;;
44536;SDS011;30245;51.966;6.292;2024-02-21T01:13:40;16.73;;;9.73;;
44536;SDS011;30245;51.966;6.292;2024-02-21T01:16:06;21.23;;;10.27;;
44536;SDS011;30245;51.966;6.292;2024-02-21T01:18:33;17.07;;;7.93;;
44536;SDS011;30245;51.966;6.292;2024-02-21T01:20:58;19.40;;;8.10;;
44536;SDS011;30245;51.966;6.292;2024-02-21T01:23:24;12.80;;;7.13;;
44536;SDS011;30245;51.966;6.292;2024-02-21T01:25:50;21.33;;;9.07;;
44536;SDS011;30245;51.966;6.292;2024-02-21T01:28:16;25.97;;;10.23;;
44536;SDS011;30245;51.966;6.292;2024-02-21T01:30:41;11.80;;;6.60;;
44536;SDS011;30245;51.966;6.292;2024-02-21T01:33:07;14.33;;;8.57;;
44536;SDS011;30245;51.966;6.292;2024-02-21T01:35:33;12.70;;;7.20;;
44536;SDS011;30245;51.966;6.292;2024-02-21T01:37:59;17.87;;;7.57;;
44536;SDS011;30245;51.966;6.292;2024-02-21T01:40:25;22.07;;;7.63;;
44536;SDS011;30245;51.966;6.292;2024-02-21T01:42:50;12.50;;;7.07;;
44536;SDS011;30245;51.966;6.292;2024-02-21T01:45:18;16.98;;;7.75;;
44536;SDS011;30245;51.966;6.292;2024-02-21T01:47:44;15.20;;;8.87;;
44536;SDS011;30245;51.966;6.292;2024-02-21T01:50:10;16.27;;;8.30;;
44536;SDS011;30245;51.966;6.292;2024-02-21T01:52:37;11.37;;;7.60;;
44536;SDS011;30245;51.966;6.292;2024-02-21T01:55:04;10.20;;;6.37;;
44536;SDS011;30245;51.966;6.292;2024-02-21T01:57:30;14.00;;;6.87;;
44536;SDS011;30245;51.966;6.292;2024-02-21T01:59:56;14.93;;;6.50;;
44536;SDS011;30245;51.966;6.292;2024-02-21T02:02:22;12.47;;;6.93;;
44536;SDS011;30245;51.966;6.292;2024-02-21T02:04:48;9.47;;;8.33;;
44536;SDS011;30245;51.966;6.292;2024-02-21T02:07:14;16.83;;;8.50;;
44536;SDS011;30245;51.966;6.292;2024-02-21T02:09:40;22.10;;;8.63;;
44536;SDS011;30245;51.966;6.292;2024-02-21T02:12:05;17.90;;;7.77;;
44536;SDS011;30245;51.966;6.292;2024-02-21T02:14:31;23.23;;;8.50;;
44536;SDS011;30245;51.966;6.292;2024-02-21T02:16:57;15.83;;;7.57;;
44536;SDS011;30245;51.966;6.292;2024-02-21T02:19:22;18.77;;;7.70;;
44536;SDS011;30245;51.966;6.292;2024-02-21T02:21:51;12.93;;;7.33;;
44536;SDS011;30245;51.966;6.292;2024-02-21T02:24:21;16.37;;;8.20;;
44536;SDS011;30245;51.966;6.292;2024-02-21T02:26:50;11.33;;;6.87;;
44536;SDS011;30245;51.966;6.292;2024-02-21T02:29:16;9.37;;;5.93;;
44536;SDS011;30245;51.966;6.292;2024-02-21T02:31:42;17.30;;;8.27;;
44536;SDS011;30245;51.966;6.292;2024-02-21T02:34:08;15.37;;;7.07;;
44536;SDS011;30245;51.966;6.292;2024-02-21T02:36:34;14.33;;;7.23;;
44536;SDS011;30245;51.966;6.292;2024-02-21T02:39:00;11.77;;;7.23;;
44536;SDS011;30245;51.966;6.292;2024-02-21T02:41:26;19.60;;;8.43;;
44536;SDS011;30245;51.966;6.292;2024-02-21T02:43:51;13.93;;;7.53;;
44536;SDS011;30245;51.966;6.292;2024-02-21T02:46:17;18.03;;;6.23;;
44536;SDS011;30245;51.966;6.292;2024-02-21T02:48:42;13.67;;;6.63;;
44536;SDS011;30245;51.966;6.292;2024-02-21T02:51:08;16.33;;;8.23;;
44536;SDS011;30245;51.966;6.292;2024-02-21T02:53:33;18.00;;;8.13;;
44536;SDS011;30245;51.966;6.292;2024-02-21T02:55:59;11.53;;;5.30;;
44536;SDS011;30245;51.966;6.292;2024-02-21T02:58:25;13.80;;;7.13;;
44536;SDS011;30245;51.966;6.292;2024-02-21T03:00:50;9.90;;;6.37;;
44536;SDS011;30245;51.966;6.292;2024-02-21T03:03:16;12.73;;;6.77;;
44536;SDS011;30245;51.966;6.292;2024-02-21T03:05:41;14.03;;;6.50;;
44536;SDS011;30245;51.966;6.292;2024-02-21T03:08:07;15.07;;;6.43;;
44536;SDS011;30245;51.966;6.292;2024-02-21T03:10:33;10.60;;;7.20;;
44536;SDS011;30245;51.966;6.292;2024-02-21T03:12:58;16.60;;;8.00;;
44536;SDS011;30245;51.966;6.292;2024-02-21T03:15:24;12.37;;;5.50;;
44536;SDS011;30245;51.966;6.292;2024-02-21T03:17:50;14.00;;;6.00;;
44536;SDS011;30245;51.966;6.292;2024-02-21T03:20:15;11.90;;;5.77;;
44536;SDS011;30245;51.966;6.292;2024-02-21T03:22:41;9.90;;;6.37;;
44536;SDS011;30245;51.966;6.292;2024-02-21T03:25:07;18.47;;;6.07;;
44536;SDS011;30245;51.966;6.292;2024-02-21T03:27:34;10.30;;;5.78;;
44536;SDS011;30245;51.966;6.292;2024-02-21T03:30:00;9.30;;;5.50;;
44536;SDS011;30245;51.966;6.292;2024-02-21T03:32:26;12.57;;;5.27;;
44536;SDS011;30245;51.966;6.292;2024-02-21T03:34:53;9.10;;;5.00;;
44536;SDS011;30245;51.966;6.292;2024-02-21T03:37:19;8.63;;;4.93;;
44536;SDS011;30245;51.966;6.292;2024-02-21T03:39:45;7.07;;;5.43;;
44536;SDS011;30245;51.966;6.292;2024-02-21T03:42:11;18.97;;;4.90;;
44536;SDS011;30245;51.966;6.292;2024-02-21T03:44:36;9.93;;;5.00;;
44536;SDS011;30245;51.966;6.292;2024-02-21T03:47:02;16.87;;;5.57;;
44536;SDS011;30245;51.966;6.292;2024-02-21T03:49:28;14.83;;;6.67;;
44536;SDS011;30245;51.966;6.292;2024-02-21T03:51:53;9.67;;;4.73;;
44536;SDS011;30245;51.966;6.292;2024-02-21T03:54:19;7.70;;;5.50;;
44536;SDS011;30245;51.966;6.292;2024-02-21T03:56:45;12.57;;;3.70;;
44536;SDS011;30245;51.966;6.292;2024-02-21T03:59:12;8.13;;;4.10;;
44536;SDS011;30245;51.966;6.292;2024-02-21T04:01:38;14.10;;;5.40;;
44536;SDS011;30245;51.966;6.292;2024-02-21T04:04:04;7.73;;;4.13;;
44536;SDS011;30245;51.966;6.292;2024-02-21T04:06:29;13.10;;;5.03;;
44536;SDS011;30245;51.966;6.292;2024-02-21T04:08:55;9.33;;;3.33;;
44536;SDS011;30245;51.966;6.292;2024-02-21T04:11:21;13.67;;;4.43;;
44536;SDS011;30245;51.966;6.292;2024-02-21T04:13:47;8.10;;;3.60;;
44536;SDS011;30245;51.966;6.292;2024-02-21T04:16:13;3.83;;;3.27;;
44536;SDS011;30245;51.966;6.292;2024-02-21T04:18:40;8.73;;;4.53;;
44536;SDS011;30245;51.966;6.292;2024-02-21T04:21:06;8.80;;;3.27;;
44536;SDS011;30245;51.966;6.292;2024-02-21T04:23:31;10.93;;;4.43;;
44536;SDS011;30245;51.966;6.292;2024-02-21T04:25:57;10.10;;;3.63;;
44536;SDS011;30245;51.966;6.292;2024-02-21T04:28:23;6.83;;;3.23;;
44536;SDS011;30245;51.966;6.292;2024-02-21T04:30:48;7.23;;;3.47;;
44536;SDS011;30245;51.966;6.292;2024-02-21T04:33:14;7.27;;;3.67;;
44536;SDS011;30245;51.966;6.292;2024-02-21T04:35:39;9.50;;;4.30;;
44536;SDS011;30245;51.966;6.292;2024-02-21T04:38:05;17.03;;;4.33;;
44536;SDS011;30245;51.966;6.292;2024-02-21T04:40:31;8.80;;;3.00;;
44536;SDS011;30245;51.966;6.292;2024-02-21T04:42:57;8.73;;;3.33;;
44536;SDS011;30245;51.966;6.292;2024-02-21T04:45:23;6.60;;;3.20;;
44536;SDS011;30245;51.966;6.292;2024-02-21T04:47:48;8.13;;;2.97;;
44536;SDS011;30245;51.966;6.292;2024-02-21T04:50:14;8.40;;;2.90;;
44536;SDS011;30245;51.966;6.292;2024-02-21T04:52:40;8.97;;;4.20;;
44536;SDS011;30245;51.966;6.292;2024-02-21T04:55:05;8.90;;;5.70;;
44536;SDS011;30245;51.966;6.292;2024-02-21T04:57:32;4.93;;;2.80;;
44536;SDS011;30245;51.966;6.292;2024-02-21T04:59:57;14.63;;;5.60;;
44536;SDS011;30245;51.966;6.292;2024-02-21T05:02:23;5.50;;;2.93;;
44536;SDS011;30245;51.966;6.292;2024-02-21T05:04:49;12.03;;;4.00;;
44536;SDS011;30245;51.966;6.292;2024-02-21T05:07:15;7.07;;;3.20;;
44536;SDS011;30245;51.966;6.292;2024-02-21T05:09:44;7.70;;;4.03;;
44536;SDS011;30245;51.966;6.292;2024-02-21T05:12:10;7.30;;;3.50;;
44536;SDS011;30245;51.966;6.292;2024-02-21T05:14:36;9.13;;;3.37;;
44536;SDS011;30245;51.966;6.292;2024-02-21T05:17:02;7.73;;;3.10;;
44536;SDS011;30245;51.966;6.292;2024-02-21T05:19:28;5.50;;;2.93;;
44536;SDS011;30245;51.966;6.292;2024-02-21T05:21:54;9.83;;;4.00;;
44536;SDS011;30245;51.966;6.292;2024-02-21T05:24:20;13.17;;;5.20;;
44536;SDS011;30245;51.966;6.292;2024-02-21T05:26:45;9.30;;;3.03;;
44536;SDS011;30245;51.966;6.292;2024-02-21T05:29:11;3.97;;;2.90;;
44536;SDS011;30245;51.966;6.292;2024-02-21T05:31:54;10.27;;;4.03;;
44536;SDS011;30245;51.966;6.292;2024-02-21T05:34:23;6.93;;;2.63;;
44536;SDS011;30245;51.966;6.292;2024-02-21T05:36:50;5.97;;;2.57;;
44536;SDS011;30245;51.966;6.292;2024-02-21T05:39:16;6.87;;;3.13;;
44536;SDS011;30245;51.966;6.292;2024-02-21T05:41:43;10.40;;;4.47;;
44536;SDS011;30245;51.966;6.292;2024-02-21T05:44:08;5.60;;;2.90;;
44536;SDS011;30245;51.966;6.292;2024-02-21T05:46:34;8.63;;;3.27;;
44536;SDS011;30245;51.966;6.292;2024-02-21T05:49:00;7.70;;;3.07;;
44536;SDS011;30245;51.966;6.292;2024-02-21T05:51:26;10.67;;;3.63;;
44536;SDS011;30245;51.966;6.292;2024-02-21T05:53:51;10.03;;;3.50;;
44536;SDS011;30245;51.966;6.292;2024-02-21T05:56:17;4.57;;;3.00;;
44536;SDS011;30245;51.966;6.292;2024-02-21T05:58:43;8.80;;;2.93;;
44536;SDS011;30245;51.966;6.292;2024-02-21T06:01:08;9.37;;;2.83;;
44536;SDS011;30245;51.966;6.292;2024-02-21T06:03:34;9.67;;;3.57;;
44536;SDS011;30245;51.966;6.292;2024-02-21T06:06:01;6.23;;;3.20;;
44536;SDS011;30245;51.966;6.292;2024-02-21T06:08:27;8.30;;;3.17;;
44536;SDS011;30245;51.966;6.292;2024-02-21T06:10:52;6.50;;;2.47;;
44536;SDS011;30245;51.966;6.292;2024-02-21T06:13:19;4.57;;;2.73;;
44536;SDS011;30245;51.966;6.292;2024-02-21T06:15:46;5.67;;;3.17;;
44536;SDS011;30245;51.966;6.292;2024-02-21T06:18:12;5.50;;;2.60;;
44536;SDS011;30245;51.966;6.292;2024-02-21T06:20:38;4.63;;;2.10;;
44536;SDS011;30245;51.966;6.292;2024-02-21T06:23:05;8.40;;;2.93;;
44536;SDS011;30245;51.966;6.292;2024-02-21T06:25:31;5.67;;;2.53;;
44536;SDS011;30245;51.966;6.292;2024-02-21T06:27:57;13.10;;;5.77;;
44536;SDS011;30245;51.966;6.292;2024-02-21T06:30:22;7.07;;;2.97;;
44536;SDS011;30245;51.966;6.292;2024-02-21T06:32:48;7.13;;;3.63;;
44536;SDS011;30245;51.966;6.292;2024-02-21T06:35:14;14.97;;;3.37;;
44536;SDS011;30245;51.966;6.292;2024-02-21T06:37:39;8.57;;;4.03;;
44536;SDS011;30245;51.966;6.292;2024-02-21T06:40:05;10.37;;;4.30;;
44536;SDS011;30245;51.966;6.292;2024-02-21T06:42:31;10.80;;;4.40;;
44536;SDS011;30245;51.966;6.292;2024-02-21T06:44:57;7.63;;;3.90;;
44536;SDS011;30245;51.966;6.292;2024-02-21T06:47:22;13.03;;;5.53;;
44536;SDS011;30245;51.966;6.292;2024-02-21T06:49:48;12.03;;;5.73;;
44536;SDS011;30245;51.966;6.292;2024-02-21T06:52:16;12.13;;;5.37;;
44536;SDS011;30245;51.966;6.292;2024-02-21T06:54:45;12.67;;;5.47;;
44536;SDS011;30245;51.966;6.292;2024-02-21T06:57:13;11.27;;;6.18;;
44536;SDS011;30245;51.966;6.292;2024-02-21T06:59:42;10.77;;;5.32;;
44536;SDS011;30245;51.966;6.292;2024-02-21T07:02:08;9.57;;;5.57;;
44536;SDS011;30245;51.966;6.292;2024-02-21T07:04:33;10.30;;;5.03;;
44536;SDS011;30245;51.966;6.292;2024-02-21T07:06:59;12.50;;;4.90;;
44536;SDS011;30245;51.966;6.292;2024-02-21T07:09:25;12.87;;;5.43;;
44536;SDS011;30245;51.966;6.292;2024-02-21T07:11:50;17.33;;;6.47;;
44536;SDS011;30245;51.966;6.292;2024-02-21T07:14:17;10.37;;;4.97;;
44536;SDS011;30245;51.966;6.292;2024-02-21T07:16:43;9.60;;;5.33;;
44536;SDS011;30245;51.966;6.292;2024-02-21T07:19:09;12.97;;;5.67;;
44536;SDS011;30245;51.966;6.292;2024-02-21T07:21:34;10.63;;;6.10;;
44536;SDS011;30245;51.966;6.292;2024-02-21T07:24:02;10.35;;;5.68;;
44536;SDS011;30245;51.966;6.292;2024-02-21T07:26:29;9.47;;;4.17;;
44536;SDS011;30245;51.966;6.292;2024-02-21T07:28:54;9.57;;;4.67;;
44536;SDS011;30245;51.966;6.292;2024-02-21T07:31:20;19.10;;;4.50;;
44536;SDS011;30245;51.966;6.292;2024-02-21T07:33:45;9.63;;;4.23;;
44536;SDS011;30245;51.966;6.292;2024-02-21T07:36:11;10.73;;;3.87;;
44536;SDS011;30245;51.966;6.292;2024-02-21T07:38:37;13.67;;;4.87;;
44536;SDS011;30245;51.966;6.292;2024-02-21T07:41:02;11.63;;;3.57;;
44536;SDS011;30245;51.966;6.292;2024-02-21T07:43:29;11.03;;;5.50;;
44536;SDS011;30245;51.966;6.292;2024-02-21T07:45:55;5.70;;;3.47;;
44536;SDS011;30245;51.966;6.292;2024-02-21T07:48:21;11.17;;;5.13;;
44536;SDS011;30245;51.966;6.292;2024-02-21T07:50:51;8.40;;;4.33;;
44536;SDS011;30245;51.966;6.292;2024-02-21T07:53:17;6.80;;;4.00;;
44536;SDS011;30245;51.966;6.292;2024-02-21T07:55:43;5.13;;;4.57;;
44536;SDS011;30245;51.966;6.292;2024-02-21T07:58:08;17.47;;;5.37;;
44536;SDS011;30245;51.966;6.292;2024-02-21T08:00:34;15.40;;;5.00;;
44536;SDS011;30245;51.966;6.292;2024-02-21T08:02:59;12.03;;;4.30;;
44536;SDS011;30245;51.966;6.292;2024-02-21T08:05:25;10.40;;;5.47;;
44536;SDS011;30245;51.966;6.292;2024-02-21T08:07:50;10.60;;;5.10;;
44536;SDS011;30245;51.966;6.292;2024-02-21T08:10:16;12.70;;;4.40;;
44536;SDS011;30245;51.966;6.292;2024-02-21T08:12:42;9.83;;;5.23;;
44536;SDS011;30245;51.966;6.292;2024-02-21T08:15:07;11.33;;;4.60;;
44536;SDS011;30245;51.966;6.292;2024-02-21T08:17:35;8.18;;;4.10;;
44536;SDS011;30245;51.966;6.292;2024-02-21T08:20:01;8.80;;;4.03;;
44536;SDS011;30245;51.966;6.292;2024-02-21T08:22:28;14.67;;;5.50;;
44536;SDS011;30245;51.966;6.292;2024-02-21T08:24:53;8.67;;;3.43;;
44536;SDS011;30245;51.966;6.292;2024-02-21T08:27:19;7.00;;;3.83;;
44536;SDS011;30245;51.966;6.292;2024-02-21T08:29:44;9.40;;;4.80;;
44536;SDS011;30245;51.966;6.292;2024-02-21T08:32:10;11.07;;;5.97;;
44536;SDS011;30245;51.966;6.292;2024-02-21T08:34:36;8.47;;;4.87;;
44536;SDS011;30245;51.966;6.292;2024-02-21T08:37:01;16.47;;;5.07;;
44536;SDS011;30245;51.966;6.292;2024-02-21T08:39:27;13.53;;;6.53;;
44536;SDS011;30245;51.966;6.292;2024-02-21T08:41:55;18.13;;;6.40;;
44536;SDS011;30245;51.966;6.292;2024-02-21T08:44:22;16.47;;;6.80;;
44536;SDS011;30245;51.966;6.292;2024-02-21T08:46:52;16.83;;;5.90;;
44536;SDS011;30245;51.966;6.292;2024-02-21T08:49:18;7.23;;;4.33;;
44536;SDS011;30245;51.966;6.292;2024-02-21T08:51:43;9.00;;;4.80;;
44536;SDS011;30245;51.966;6.292;2024-02-21T08:54:09;8.50;;;5.50;;
44536;SDS011;30245;51.966;6.292;2024-02-21T08:56:34;10.67;;;4.97;;
44536;SDS011;30245;51.966;6.292;2024-02-21T08:59:00;7.07;;;4.07;;
44536;SDS011;30245;51.966;6.292;2024-02-21T09:01:26;6.83;;;3.97;;
44536;SDS011;30245;51.966;6.292;2024-02-21T09:03:52;7.20;;;3.63;;
44536;SDS011;30245;51.966;6.292;2024-02-21T09:06:18;12.57;;;4.37;;
44536;SDS011;30245;51.966;6.292;2024-02-21T09:08:45;7.90;;;3.43;;
44536;SDS011;30245;51.966;6.292;2024-02-21T09:11:11;7.33;;;3.90;;
44536;SDS011;30245;51.966;6.292;2024-02-21T09:13:36;14.57;;;4.80;;
44536;SDS011;30245;51.966;6.292;2024-02-21T09:16:02;14.53;;;5.13;;
44536;SDS011;30245;51.966;6.292;2024-02-21T09:18:28;8.03;;;4.23;;
44536;SDS011;30245;51.966;6.292;2024-02-21T09:20:54;7.73;;;4.13;;
44536;SDS011;30245;51.966;6.292;2024-02-21T09:23:20;4.50;;;2.90;;
44536;SDS011;30245;51.966;6.292;2024-02-21T09:25:45;6.23;;;3.40;;
44536;SDS011;30245;51.966;6.292;2024-02-21T09:28:12;5.63;;;3.27;;
44536;SDS011;30245;51.966;6.292;2024-02-21T09:30:38;8.13;;;4.63;;
44536;SDS011;30245;51.966;6.292;2024-02-21T09:33:04;7.10;;;2.97;;
44536;SDS011;30245;51.966;6.292;2024-02-21T09:35:30;9.17;;;3.93;;
44536;SDS011;30245;51.966;6.292;2024-02-21T09:37:55;7.10;;;4.07;;
44536;SDS011;30245;51.966;6.292;2024-02-21T09:40:21;5.50;;;3.27;;
44536;SDS011;30245;51.966;6.292;2024-02-21T09:42:47;4.73;;;3.57;;
44536;SDS011;30245;51.966;6.292;2024-02-21T09:45:23;8.27;;;3.37;;
44536;SDS011;30245;51.966;6.292;2024-02-21T09:50:40;8.10;;;4.27;;
44536;SDS011;30245;51.966;6.292;2024-02-21T09:53:08;6.00;;;3.08;;
44536;SDS011;30245;51.966;6.292;2024-02-21T09:55:37;6.83;;;3.30;;
44536;SDS011;30245;51.966;6.292;2024-02-21T09:58:05;6.30;;;3.08;;
44536;SDS011;30245;51.966;6.292;2024-02-21T10:00:31;6.67;;;5.23;;
44536;SDS011;30245;51.966;6.292;2024-02-21T10:02:56;4.93;;;3.43;;
44536;SDS011;30245;51.966;6.292;2024-02-21T10:05:23;5.20;;;3.97;;
44536;SDS011;30245;51.966;6.292;2024-02-21T10:07:51;12.60;;;4.53;;
44536;SDS011;30245;51.966;6.292;2024-02-21T10:10:17;9.15;;;3.60;;
44536;SDS011;30245;51.966;6.292;2024-02-21T10:12:52;6.43;;;3.30;;
44536;SDS011;30245;51.966;6.292;2024-02-21T10:15:21;6.87;;;3.43;;
44536;SDS011;30245;51.966;6.292;2024-02-21T10:17:48;5.57;;;3.27;;
44536;SDS011;30245;51.966;6.292;2024-02-21T10:20:15;9.87;;;3.43;;
44536;SDS011;30245;51.966;6.292;2024-02-21T10:22:41;6.03;;;2.73;;
44536;SDS011;30245;51.966;6.292;2024-02-21T10:25:10;5.70;;;2.20;;
44536;SDS011;30245;51.966;6.292;2024-02-21T10:27:39;3.90;;;2.25;;
44536;SDS011;30245;51.966;6.292;2024-02-21T10:30:06;5.30;;;1.83;;
44536;SDS011;30245;51.966;6.292;2024-02-21T10:32:33;4.20;;;2.28;;
44536;SDS011;30245;51.966;6.292;2024-02-21T10:35:02;7.03;;;2.87;;
44536;SDS011;30245;51.966;6.292;2024-02-21T10:37:31;3.53;;;2.10;;
44536;SDS011;30245;51.966;6.292;2024-02-21T10:39:57;3.00;;;1.70;;
44536;SDS011;30245;51.966;6.292;2024-02-21T10:42:23;4.43;;;2.03;;
44536;SDS011;30245;51.966;6.292;2024-02-21T10:44:54;2.63;;;1.37;;
44536;SDS011;30245;51.966;6.292;2024-02-21T10:47:25;3.80;;;1.10;;
44536;SDS011;30245;51.966;6.292;2024-02-21T10:50:03;2.57;;;1.60;;
44536;SDS011;30245;51.966;6.292;2024-02-21T10:55:13;2.00;;;1.00;;
44536;SDS011;30245;51.966;6.292;2024-02-21T10:57:45;4.97;;;2.08;;
44536;SDS011;30245;51.966;6.292;2024-02-21T11:00:12;2.60;;;1.00;;
44536;SDS011;30245;51.966;6.292;2024-02-21T11:02:41;2.03;;;1.17;;
44536;SDS011;30245;51.966;6.292;2024-02-21T11:05:07;3.40;;;1.47;;
44536;SDS011;30245;51.966;6.292;2024-02-21T11:07:35;5.63;;;1.20;;
44536;SDS011;30245;51.966;6.292;2024-02-21T11:10:02;2.83;;;2.00;;
44536;SDS011;30245;51.966;6.292;2024-02-21T11:12:28;4.63;;;1.90;;
44536;SDS011;30245;51.966;6.292;2024-02-21T11:15:05;4.68;;;2.13;;
44536;SDS011;30245;51.966;6.292;2024-02-21T11:17:31;4.60;;;2.93;;
44536;SDS011;30245;51.966;6.292;2024-02-21T11:19:56;3.70;;;2.00;;
44536;SDS011;30245;51.966;6.292;2024-02-21T11:22:24;3.83;;;2.07;;
44536;SDS011;30245;51.966;6.292;2024-02-21T11:24:54;6.10;;;2.87;;
44536;SDS011;30245;51.966;6.292;2024-02-21T11:27:21;7.50;;;2.00;;
44536;SDS011;30245;51.966;6.292;2024-02-21T11:29:57;7.93;;;2.87;;
44536;SDS011;30245;51.966;6.292;2024-02-21T11:32:23;3.23;;;1.50;;
44536;SDS011;30245;51.966;6.292;2024-02-21T11:34:56;4.73;;;2.33;;
44536;SDS011;30245;51.966;6.292;2024-02-21T11:37:27;4.93;;;1.67;;
44536;SDS011;30245;51.966;6.292;2024-02-21T11:39:54;5.73;;;2.67;;
44536;SDS011;30245;51.966;6.292;2024-02-21T11:42:20;5.20;;;2.60;;
44536;SDS011;30245;51.966;6.292;2024-02-21T11:44:46;4.73;;;2.70;;
44536;SDS011;30245;51.966;6.292;2024-02-21T11:47:13;7.27;;;2.67;;
44536;SDS011;30245;51.966;6.292;2024-02-21T11:49:43;10.70;;;4.10;;
44536;SDS011;30245;51.966;6.292;2024-02-21T11:52:11;7.83;;;3.07;;
44536;SDS011;30245;51.966;6.292;2024-02-21T11:54:40;7.57;;;2.17;;
44536;SDS011;30245;51.966;6.292;2024-02-21T11:57:06;12.10;;;3.28;;
44536;SDS011;30245;51.966;6.292;2024-02-21T11:59:31;7.30;;;2.83;;
44536;SDS011;30245;51.966;6.292;2024-02-21T12:01:58;6.57;;;2.83;;
44536;SDS011;30245;51.966;6.292;2024-02-21T12:04:24;7.53;;;2.73;;
44536;SDS011;30245;51.966;6.292;2024-02-21T12:06:50;8.15;;;2.58;;
44536;SDS011;30245;51.966;6.292;2024-02-21T12:09:18;10.40;;;2.97;;
44536;SDS011;30245;51.966;6.292;2024-02-21T12:11:43;6.55;;;2.67;;
44536;SDS011;30245;51.966;6.292;2024-02-21T12:14:09;5.90;;;3.22;;
44536;SDS011;30245;51.966;6.292;2024-02-21T12:16:35;5.43;;;1.85;;
44536;SDS011;30245;51.966;6.292;2024-02-21T12:19:04;7.28;;;2.88;;
44536;SDS011;30245;51.966;6.292;2024-02-21T12:21:30;8.05;;;2.88;;
44536;SDS011;30245;51.966;6.292;2024-02-21T12:23:58;7.13;;;3.00;;
44536;SDS011;30245;51.966;6.292;2024-02-21T12:26:24;6.53;;;2.22;;
44536;SDS011;30245;51.966;6.292;2024-02-21T12:28:50;7.23;;;2.07;;
44536;SDS011;30245;51.966;6.292;2024-02-21T12:31:16;7.43;;;2.00;;
44536;SDS011;30245;51.966;6.292;2024-02-21T12:33:42;3.40;;;1.42;;
44536;SDS011;30245;51.966;6.292;2024-02-21T12:36:08;4.40;;;1.42;;
44536;SDS011;30245;51.966;6.292;2024-02-21T12:38:34;12.10;;;2.72;;
44536;SDS011;30245;51.966;6.292;2024-02-21T12:41:00;6.40;;;2.67;;
44536;SDS011;30245;51.966;6.292;2024-02-21T12:43:26;4.82;;;1.60;;
44536;SDS011;30245;51.966;6.292;2024-02-21T12:45:52;4.85;;;1.90;;
44536;SDS011;30245;51.966;6.292;2024-02-21T12:48:18;5.68;;;2.28;;
44536;SDS011;30245;51.966;6.292;2024-02-21T12:50:53;4.15;;;1.80;;
44536;SDS011;30245;51.966;6.292;2024-02-21T12:53:18;7.63;;;1.58;;
44536;SDS011;30245;51.966;6.292;2024-02-21T12:55:46;7.10;;;1.80;;
44536;SDS011;30245;51.966;6.292;2024-02-21T12:58:13;6.85;;;2.85;;
44536;SDS011;30245;51.966;6.292;2024-02-21T13:00:39;6.53;;;1.95;;
44536;SDS011;30245;51.966;6.292;2024-02-21T13:03:05;5.03;;;2.25;;
44536;SDS011;30245;51.966;6.292;2024-02-21T13:05:31;8.25;;;1.67;;
44536;SDS011;30245;51.966;6.292;2024-02-21T13:07:57;11.48;;;2.47;;
44536;SDS011;30245;51.966;6.292;2024-02-21T13:10:23;11.50;;;2.30;;
44536;SDS011;30245;51.966;6.292;2024-02-21T13:12:49;5.90;;;1.52;;
44536;SDS011;30245;51.966;6.292;2024-02-21T13:15:14;10.98;;;1.67;;
44536;SDS011;30245;51.966;6.292;2024-02-21T13:17:41;4.57;;;2.00;;
44536;SDS011;30245;51.966;6.292;2024-02-21T13:20:07;3.58;;;1.65;;
44536;SDS011;30245;51.966;6.292;2024-02-21T13:22:33;6.07;;;1.90;;
44536;SDS011;30245;51.966;6.292;2024-02-21T13:24:59;6.75;;;1.75;;
44536;SDS011;30245;51.966;6.292;2024-02-21T13:27:25;4.72;;;1.00;;
44536;SDS011;30245;51.966;6.292;2024-02-21T13:29:51;3.30;;;1.48;;
44536;SDS011;30245;51.966;6.292;2024-02-21T13:32:18;6.43;;;1.40;;
44536;SDS011;30245;51.966;6.292;2024-02-21T13:34:43;4.38;;;1.95;;
44536;SDS011;30245;51.966;6.292;2024-02-21T13:37:09;6.00;;;2.33;;
44536;SDS011;30245;51.966;6.292;2024-02-21T13:39:35;7.07;;;2.45;;
44536;SDS011;30245;51.966;6.292;2024-02-21T13:42:02;5.25;;;1.88;;
44536;SDS011;30245;51.966;6.292;2024-02-21T13:46:56;9.07;;;3.45;;
44536;SDS011;30245;51.966;6.292;2024-02-21T13:49:22;5.78;;;2.50;;
44536;SDS011;30245;51.966;6.292;2024-02-21T13:51:47;5.82;;;2.92;;
44536;SDS011;30245;51.966;6.292;2024-02-21T13:54:13;7.88;;;2.67;;
44536;SDS011;30245;51.966;6.292;2024-02-21T13:56:42;9.38;;;4.30;;
44536;SDS011;30245;51.966;6.292;2024-02-21T13:59:08;5.82;;;2.00;;
44536;SDS011;30245;51.966;6.292;2024-02-21T14:01:33;9.98;;;3.15;;
44536;SDS011;30245;51.966;6.292;2024-02-21T14:04:00;7.35;;;2.60;;
44536;SDS011;30245;51.966;6.292;2024-02-21T14:06:26;5.32;;;2.20;;
44536;SDS011;30245;51.966;6.292;2024-02-21T14:08:52;10.98;;;1.90;;
44536;SDS011;30245;51.966;6.292;2024-02-21T14:11:18;6.93;;;1.70;;
44536;SDS011;30245;51.966;6.292;2024-02-21T14:13:43;8.88;;;1.67;;
44536;SDS011;30245;51.966;6.292;2024-02-21T14:16:10;6.13;;;2.13;;
44536;SDS011;30245;51.966;6.292;2024-02-21T14:18:38;5.05;;;1.65;;
44536;SDS011;30245;51.966;6.292;2024-02-21T14:21:06;4.90;;;1.90;;
44536;SDS011;30245;51.966;6.292;2024-02-21T14:23:31;4.32;;;1.85;;
44536;SDS011;30245;51.966;6.292;2024-02-21T14:25:58;5.95;;;2.05;;
44536;SDS011;30245;51.966;6.292;2024-02-21T14:28:24;4.53;;;2.40;;
44536;SDS011;30245;51.966;6.292;2024-02-21T14:30:50;4.88;;;2.00;;
44536;SDS011;30245;51.966;6.292;2024-02-21T14:33:18;8.20;;;1.83;;
44536;SDS011;30245;51.966;6.292;2024-02-21T14:35:44;9.02;;;2.85;;
44536;SDS011;30245;51.966;6.292;2024-02-21T14:38:10;4.97;;;1.95;;
44536;SDS011;30245;51.966;6.292;2024-02-21T14:40:35;8.07;;;2.30;;
44536;SDS011;30245;51.966;6.292;2024-02-21T14:43:01;6.60;;;2.20;;
44536;SDS011;30245;51.966;6.292;2024-02-21T14:45:26;6.32;;;2.25;;